sensor_id;sensor_type;location;lat;lon;timestamp;P1;durP1;ratioP1;P2;durP2;ratioP2
14088;SDS011;7120;52.890;6.040;2023-07-24T00:00:23;8.37;;;5.47;;
14088;SDS011;7120;52.890;6.040;2023-07-24T00:02:48;6.43;;;5.53;;
14088;SDS011;7120;52.890;6.040;2023-07-24T00:05:14;8.90;;;5.87;;
14088;SDS011;7120;52.890;6.040;2023-07-24T00:07:39;8.63;;;6.00;;
14088;SDS011;7120;52.890;6.040;2023-07-24T00:10:05;8.13;;;6.70;;
14088;SDS011;7120;52.890;6.040;2023-07-24T00:12:30;7.00;;;6.00;;
14088;SDS011;7120;52.890;6.040;2023-07-24T00:14:56;7.47;;;5.67;;
14088;SDS011;7120;52.890;6.040;2023-07-24T00:17:22;6.63;;;5.93;;
14088;SDS011;7120;52.890;6.040;2023-07-24T00:19:48;6.67;;;5.97;;
14088;SDS011;7120;52.890;6.040;2023-07-24T00:22:14;8.67;;;6.90;;
14088;SDS011;7120;52.890;6.040;2023-07-24T00:24:39;7.43;;;5.87;;
14088;SDS011;7120;52.890;6.040;2023-07-24T00:27:05;7.73;;;6.37;;
14088;SDS011;7120;52.890;6.040;2023-07-24T00:29:30;8.50;;;6.07;;
14088;SDS011;7120;52.890;6.040;2023-07-24T00:31:55;9.67;;;7.50;;
14088;SDS011;7120;52.890;6.040;2023-07-24T00:34:21;8.87;;;7.97;;
14088;SDS011;7120;52.890;6.040;2023-07-24T00:36:46;9.97;;;7.70;;
14088;SDS011;7120;52.890;6.040;2023-07-24T00:39:13;10.67;;;8.47;;
14088;SDS011;7120;52.890;6.040;2023-07-24T00:41:39;12.30;;;9.43;;
14088;SDS011;7120;52.890;6.040;2023-07-24T00:44:05;9.83;;;8.67;;
14088;SDS011;7120;52.890;6.040;2023-07-24T00:46:30;11.30;;;9.87;;
14088;SDS011;7120;52.890;6.040;2023-07-24T00:48:57;12.97;;;10.90;;
14088;SDS011;7120;52.890;6.040;2023-07-24T00:51:25;13.97;;;10.80;;
14088;SDS011;7120;52.890;6.040;2023-07-24T00:53:52;14.17;;;10.83;;
14088;SDS011;7120;52.890;6.040;2023-07-24T00:56:20;15.83;;;12.50;;
14088;SDS011;7120;52.890;6.040;2023-07-24T00:58:46;13.30;;;11.90;;
14088;SDS011;7120;52.890;6.040;2023-07-24T01:01:12;12.57;;;11.27;;
14088;SDS011;7120;52.890;6.040;2023-07-24T01:03:39;13.73;;;11.10;;
14088;SDS011;7120;52.890;6.040;2023-07-24T01:06:04;14.93;;;12.30;;
14088;SDS011;7120;52.890;6.040;2023-07-24T01:08:30;12.90;;;11.60;;
14088;SDS011;7120;52.890;6.040;2023-07-24T01:10:56;12.67;;;11.47;;
14088;SDS011;7120;52.890;6.040;2023-07-24T01:13:25;12.97;;;11.57;;
14088;SDS011;7120;52.890;6.040;2023-07-24T01:15:59;12.73;;;11.43;;
14088;SDS011;7120;52.890;6.040;2023-07-24T01:18:30;12.10;;;10.23;;
14088;SDS011;7120;52.890;6.040;2023-07-24T01:20:56;12.40;;;10.27;;
14088;SDS011;7120;52.890;6.040;2023-07-24T01:26:07;10.60;;;9.60;;
14088;SDS011;7120;52.890;6.040;2023-07-24T01:28:33;10.70;;;9.63;;
14088;SDS011;7120;52.890;6.040;2023-07-24T01:30:58;11.87;;;9.93;;
14088;SDS011;7120;52.890;6.040;2023-07-24T01:33:23;9.87;;;8.87;;
14088;SDS011;7120;52.890;6.040;2023-07-24T01:35:57;9.80;;;8.90;;
14088;SDS011;7120;52.890;6.040;2023-07-24T01:38:24;11.17;;;9.97;;
14088;SDS011;7120;52.890;6.040;2023-07-24T01:40:51;14.03;;;9.30;;
14088;SDS011;7120;52.890;6.040;2023-07-24T01:43:18;10.00;;;8.97;;
14088;SDS011;7120;52.890;6.040;2023-07-24T01:45:43;11.73;;;9.17;;
14088;SDS011;7120;52.890;6.040;2023-07-24T01:48:09;9.93;;;8.87;;
14088;SDS011;7120;52.890;6.040;2023-07-24T01:50:34;10.33;;;9.30;;
14088;SDS011;7120;52.890;6.040;2023-07-24T01:53:00;11.03;;;8.80;;
14088;SDS011;7120;52.890;6.040;2023-07-24T01:55:25;11.27;;;8.57;;
14088;SDS011;7120;52.890;6.040;2023-07-24T01:57:51;10.27;;;8.77;;
14088;SDS011;7120;52.890;6.040;2023-07-24T02:00:16;12.07;;;8.73;;
14088;SDS011;7120;52.890;6.040;2023-07-24T02:02:41;8.50;;;7.60;;
14088;SDS011;7120;52.890;6.040;2023-07-24T02:05:07;8.40;;;7.50;;
14088;SDS011;7120;52.890;6.040;2023-07-24T02:07:32;9.00;;;7.67;;
14088;SDS011;7120;52.890;6.040;2023-07-24T02:09:58;9.70;;;7.63;;
14088;SDS011;7120;52.890;6.040;2023-07-24T02:12:23;9.77;;;7.87;;
14088;SDS011;7120;52.890;6.040;2023-07-24T02:14:49;10.63;;;6.97;;
14088;SDS011;7120;52.890;6.040;2023-07-24T02:17:16;9.30;;;8.07;;
14088;SDS011;7120;52.890;6.040;2023-07-24T02:19:42;8.50;;;7.33;;
14088;SDS011;7120;52.890;6.040;2023-07-24T02:22:07;9.50;;;7.40;;
14088;SDS011;7120;52.890;6.040;2023-07-24T02:24:32;8.90;;;7.60;;
14088;SDS011;7120;52.890;6.040;2023-07-24T02:26:58;10.57;;;7.83;;
14088;SDS011;7120;52.890;6.040;2023-07-24T02:29:23;10.10;;;8.27;;
14088;SDS011;7120;52.890;6.040;2023-07-24T02:31:49;9.60;;;8.13;;
14088;SDS011;7120;52.890;6.040;2023-07-24T02:34:15;10.60;;;8.17;;
14088;SDS011;7120;52.890;6.040;2023-07-24T02:36:41;8.97;;;8.07;;
14088;SDS011;7120;52.890;6.040;2023-07-24T02:39:06;10.50;;;8.30;;
14088;SDS011;7120;52.890;6.040;2023-07-24T02:41:32;9.47;;;8.47;;
14088;SDS011;7120;52.890;6.040;2023-07-24T02:43:57;10.50;;;8.10;;
14088;SDS011;7120;52.890;6.040;2023-07-24T02:46:23;9.97;;;8.17;;
14088;SDS011;7120;52.890;6.040;2023-07-24T02:48:49;8.33;;;7.10;;
14088;SDS011;7120;52.890;6.040;2023-07-24T02:51:15;10.80;;;7.43;;
14088;SDS011;7120;52.890;6.040;2023-07-24T02:53:41;9.27;;;7.40;;
14088;SDS011;7120;52.890;6.040;2023-07-24T02:56:06;11.47;;;7.63;;
14088;SDS011;7120;52.890;6.040;2023-07-24T02:58:31;9.23;;;7.80;;
14088;SDS011;7120;52.890;6.040;2023-07-24T03:01:06;8.50;;;7.70;;
14088;SDS011;7120;52.890;6.040;2023-07-24T03:03:33;10.53;;;7.73;;
14088;SDS011;7120;52.890;6.040;2023-07-24T03:05:59;11.03;;;8.10;;
14088;SDS011;7120;52.890;6.040;2023-07-24T03:08:24;8.87;;;7.47;;
14088;SDS011;7120;52.890;6.040;2023-07-24T03:10:50;8.93;;;8.00;;
14088;SDS011;7120;52.890;6.040;2023-07-24T03:13:15;9.23;;;8.23;;
14088;SDS011;7120;52.890;6.040;2023-07-24T03:15:41;9.60;;;8.53;;
14088;SDS011;7120;52.890;6.040;2023-07-24T03:18:06;9.73;;;7.87;;
14088;SDS011;7120;52.890;6.040;2023-07-24T03:20:31;9.80;;;8.80;;
14088;SDS011;7120;52.890;6.040;2023-07-24T03:22:57;11.10;;;9.30;;
14088;SDS011;7120;52.890;6.040;2023-07-24T03:25:22;9.93;;;8.90;;
14088;SDS011;7120;52.890;6.040;2023-07-24T03:27:48;10.50;;;9.47;;
14088;SDS011;7120;52.890;6.040;2023-07-24T03:30:13;11.50;;;9.87;;
14088;SDS011;7120;52.890;6.040;2023-07-24T03:32:39;10.93;;;9.33;;
14088;SDS011;7120;52.890;6.040;2023-07-24T03:35:05;10.13;;;9.10;;
14088;SDS011;7120;52.890;6.040;2023-07-24T03:37:31;13.00;;;10.43;;
14088;SDS011;7120;52.890;6.040;2023-07-24T03:39:59;11.37;;;9.40;;
14088;SDS011;7120;52.890;6.040;2023-07-24T03:42:28;10.77;;;9.07;;
14088;SDS011;7120;52.890;6.040;2023-07-24T03:44:55;10.20;;;9.03;;
14088;SDS011;7120;52.890;6.040;2023-07-24T03:47:22;12.07;;;9.77;;
14088;SDS011;7120;52.890;6.040;2023-07-24T03:49:48;10.97;;;9.87;;
14088;SDS011;7120;52.890;6.040;2023-07-24T03:52:13;11.13;;;9.87;;
14088;SDS011;7120;52.890;6.040;2023-07-24T03:54:39;9.50;;;8.60;;
14088;SDS011;7120;52.890;6.040;2023-07-24T03:57:04;10.57;;;9.40;;
14088;SDS011;7120;52.890;6.040;2023-07-24T03:59:30;10.53;;;9.43;;
14088;SDS011;7120;52.890;6.040;2023-07-24T04:01:55;10.00;;;9.00;;
14088;SDS011;7120;52.890;6.040;2023-07-24T04:04:21;11.10;;;9.53;;
14088;SDS011;7120;52.890;6.040;2023-07-24T04:06:46;10.30;;;9.13;;
14088;SDS011;7120;52.890;6.040;2023-07-24T04:09:12;11.57;;;9.23;;
14088;SDS011;7120;52.890;6.040;2023-07-24T04:11:40;9.00;;;8.10;;
14088;SDS011;7120;52.890;6.040;2023-07-24T04:14:06;11.63;;;9.20;;
14088;SDS011;7120;52.890;6.040;2023-07-24T04:16:31;10.47;;;8.43;;
14088;SDS011;7120;52.890;6.040;2023-07-24T04:18:56;8.93;;;8.03;;
14088;SDS011;7120;52.890;6.040;2023-07-24T04:21:22;9.50;;;8.60;;
14088;SDS011;7120;52.890;6.040;2023-07-24T04:23:48;9.03;;;8.13;;
14088;SDS011;7120;52.890;6.040;2023-07-24T04:26:13;9.90;;;8.23;;
14088;SDS011;7120;52.890;6.040;2023-07-24T04:28:38;8.97;;;8.07;;
14088;SDS011;7120;52.890;6.040;2023-07-24T04:31:04;9.27;;;8.13;;
14088;SDS011;7120;52.890;6.040;2023-07-24T04:33:29;9.47;;;8.47;;
14088;SDS011;7120;52.890;6.040;2023-07-24T04:35:55;9.57;;;8.67;;
14088;SDS011;7120;52.890;6.040;2023-07-24T04:38:21;9.13;;;8.13;;
14088;SDS011;7120;52.890;6.040;2023-07-24T04:40:46;9.63;;;8.63;;
14088;SDS011;7120;52.890;6.040;2023-07-24T04:43:11;8.77;;;7.87;;
14088;SDS011;7120;52.890;6.040;2023-07-24T04:45:37;8.40;;;7.60;;
14088;SDS011;7120;52.890;6.040;2023-07-24T04:48:02;8.57;;;7.77;;
14088;SDS011;7120;52.890;6.040;2023-07-24T04:50:28;8.83;;;7.70;;
14088;SDS011;7120;52.890;6.040;2023-07-24T04:52:54;8.70;;;7.80;;
14088;SDS011;7120;52.890;6.040;2023-07-24T04:55:19;8.43;;;7.53;;
14088;SDS011;7120;52.890;6.040;2023-07-24T04:57:46;9.13;;;8.27;;
14088;SDS011;7120;52.890;6.040;2023-07-24T05:00:11;8.13;;;7.30;;
14088;SDS011;7120;52.890;6.040;2023-07-24T05:02:37;8.47;;;7.67;;
14088;SDS011;7120;52.890;6.040;2023-07-24T05:05:02;8.90;;;8.00;;
14088;SDS011;7120;52.890;6.040;2023-07-24T05:07:28;9.70;;;8.47;;
14088;SDS011;7120;52.890;6.040;2023-07-24T05:09:53;8.37;;;7.57;;
14088;SDS011;7120;52.890;6.040;2023-07-24T05:12:18;9.40;;;7.97;;
14088;SDS011;7120;52.890;6.040;2023-07-24T05:14:44;9.40;;;8.13;;
14088;SDS011;7120;52.890;6.040;2023-07-24T05:17:09;9.40;;;8.50;;
14088;SDS011;7120;52.890;6.040;2023-07-24T05:19:35;10.87;;;8.50;;
14088;SDS011;7120;52.890;6.040;2023-07-24T05:22:00;9.27;;;8.37;;
14088;SDS011;7120;52.890;6.040;2023-07-24T05:24:25;9.37;;;8.07;;
14088;SDS011;7120;52.890;6.040;2023-07-24T05:26:51;10.07;;;7.37;;
14088;SDS011;7120;52.890;6.040;2023-07-24T05:29:16;9.37;;;8.33;;
14088;SDS011;7120;52.890;6.040;2023-07-24T05:31:41;8.93;;;8.07;;
14088;SDS011;7120;52.890;6.040;2023-07-24T05:34:07;9.30;;;8.37;;
14088;SDS011;7120;52.890;6.040;2023-07-24T05:36:33;9.37;;;8.40;;
14088;SDS011;7120;52.890;6.040;2023-07-24T05:38:58;8.70;;;7.80;;
14088;SDS011;7120;52.890;6.040;2023-07-24T05:41:24;9.13;;;8.20;;
14088;SDS011;7120;52.890;6.040;2023-07-24T05:43:49;9.40;;;8.30;;
14088;SDS011;7120;52.890;6.040;2023-07-24T05:46:15;9.30;;;8.40;;
14088;SDS011;7120;52.890;6.040;2023-07-24T05:48:40;9.50;;;8.60;;
14088;SDS011;7120;52.890;6.040;2023-07-24T05:51:06;9.30;;;8.40;;
14088;SDS011;7120;52.890;6.040;2023-07-24T05:53:31;9.57;;;8.57;;
14088;SDS011;7120;52.890;6.040;2023-07-24T05:56:00;9.87;;;8.30;;
14088;SDS011;7120;52.890;6.040;2023-07-24T05:58:26;9.23;;;8.30;;
14088;SDS011;7120;52.890;6.040;2023-07-24T06:00:52;9.13;;;8.20;;
14088;SDS011;7120;52.890;6.040;2023-07-24T06:03:18;8.93;;;8.03;;
14088;SDS011;7120;52.890;6.040;2023-07-24T06:05:43;8.20;;;7.40;;
14088;SDS011;7120;52.890;6.040;2023-07-24T06:08:08;7.80;;;6.73;;
14088;SDS011;7120;52.890;6.040;2023-07-24T06:10:36;10.27;;;7.20;;
14088;SDS011;7120;52.890;6.040;2023-07-24T06:13:01;7.50;;;6.80;;
14088;SDS011;7120;52.890;6.040;2023-07-24T06:15:27;8.80;;;7.27;;
14088;SDS011;7120;52.890;6.040;2023-07-24T06:17:52;7.43;;;6.70;;
14088;SDS011;7120;52.890;6.040;2023-07-24T06:20:18;8.10;;;7.30;;
14088;SDS011;7120;52.890;6.040;2023-07-24T06:22:43;7.73;;;6.70;;
14088;SDS011;7120;52.890;6.040;2023-07-24T06:25:08;6.77;;;6.07;;
14088;SDS011;7120;52.890;6.040;2023-07-24T06:27:34;6.90;;;6.20;;
14088;SDS011;7120;52.890;6.040;2023-07-24T06:29:59;7.83;;;6.90;;
14088;SDS011;7120;52.890;6.040;2023-07-24T06:32:24;8.70;;;7.70;;
14088;SDS011;7120;52.890;6.040;2023-07-24T06:34:50;8.07;;;6.30;;
14088;SDS011;7120;52.890;6.040;2023-07-24T06:37:15;9.03;;;6.80;;
14088;SDS011;7120;52.890;6.040;2023-07-24T06:39:41;9.63;;;7.00;;
14088;SDS011;7120;52.890;6.040;2023-07-24T06:42:07;7.37;;;6.57;;
14088;SDS011;7120;52.890;6.040;2023-07-24T06:44:32;7.47;;;6.27;;
14088;SDS011;7120;52.890;6.040;2023-07-24T06:46:58;8.77;;;7.40;;
14088;SDS011;7120;52.890;6.040;2023-07-24T06:49:23;9.60;;;6.63;;
14088;SDS011;7120;52.890;6.040;2023-07-24T06:51:48;8.43;;;6.33;;
14088;SDS011;7120;52.890;6.040;2023-07-24T06:54:14;7.07;;;6.23;;
14088;SDS011;7120;52.890;6.040;2023-07-24T06:56:39;7.00;;;6.20;;
14088;SDS011;7120;52.890;6.040;2023-07-24T06:59:04;7.13;;;5.80;;
14088;SDS011;7120;52.890;6.040;2023-07-24T07:01:30;7.47;;;6.17;;
14088;SDS011;7120;52.890;6.040;2023-07-24T07:03:55;9.07;;;6.03;;
14088;SDS011;7120;52.890;6.040;2023-07-24T07:06:21;7.90;;;6.07;;
14088;SDS011;7120;52.890;6.040;2023-07-24T07:08:46;9.60;;;6.07;;
14088;SDS011;7120;52.890;6.040;2023-07-24T07:11:11;8.50;;;6.03;;
14088;SDS011;7120;52.890;6.040;2023-07-24T07:13:37;8.93;;;6.73;;
14088;SDS011;7120;52.890;6.040;2023-07-24T07:16:02;7.80;;;6.07;;
14088;SDS011;7120;52.890;6.040;2023-07-24T07:18:28;6.83;;;5.97;;
14088;SDS011;7120;52.890;6.040;2023-07-24T07:20:53;10.87;;;6.67;;
14088;SDS011;7120;52.890;6.040;2023-07-24T07:23:19;8.70;;;5.67;;
14088;SDS011;7120;52.890;6.040;2023-07-24T07:25:45;7.43;;;6.20;;
14088;SDS011;7120;52.890;6.040;2023-07-24T07:28:14;8.73;;;6.37;;
14088;SDS011;7120;52.890;6.040;2023-07-24T07:30:41;7.93;;;6.40;;
14088;SDS011;7120;52.890;6.040;2023-07-24T07:33:07;7.43;;;5.90;;
14088;SDS011;7120;52.890;6.040;2023-07-24T07:35:32;8.47;;;5.77;;
14088;SDS011;7120;52.890;6.040;2023-07-24T07:37:58;6.70;;;5.73;;
14088;SDS011;7120;52.890;6.040;2023-07-24T07:40:24;6.67;;;5.97;;
14088;SDS011;7120;52.890;6.040;2023-07-24T07:42:51;8.90;;;5.57;;
14088;SDS011;7120;52.890;6.040;2023-07-24T07:45:17;6.20;;;5.60;;
14088;SDS011;7120;52.890;6.040;2023-07-24T07:47:43;6.73;;;5.43;;
14088;SDS011;7120;52.890;6.040;2023-07-24T07:50:08;7.73;;;5.97;;
14088;SDS011;7120;52.890;6.040;2023-07-24T07:52:34;7.83;;;5.90;;
14088;SDS011;7120;52.890;6.040;2023-07-24T07:54:59;7.63;;;5.73;;
14088;SDS011;7120;52.890;6.040;2023-07-24T07:57:25;9.97;;;6.27;;
14088;SDS011;7120;52.890;6.040;2023-07-24T07:59:50;8.20;;;5.50;;
14088;SDS011;7120;52.890;6.040;2023-07-24T08:02:15;7.23;;;5.20;;
14088;SDS011;7120;52.890;6.040;2023-07-24T08:04:41;9.43;;;5.63;;
14088;SDS011;7120;52.890;6.040;2023-07-24T08:07:06;9.60;;;5.80;;
14088;SDS011;7120;52.890;6.040;2023-07-24T08:09:31;8.00;;;5.93;;
14088;SDS011;7120;52.890;6.040;2023-07-24T08:11:58;8.93;;;5.97;;
14088;SDS011;7120;52.890;6.040;2023-07-24T08:14:24;10.27;;;6.40;;
14088;SDS011;7120;52.890;6.040;2023-07-24T08:16:49;8.77;;;6.40;;
14088;SDS011;7120;52.890;6.040;2023-07-24T08:19:15;8.53;;;6.20;;
14088;SDS011;7120;52.890;6.040;2023-07-24T08:21:40;7.53;;;6.73;;
14088;SDS011;7120;52.890;6.040;2023-07-24T08:24:06;9.37;;;6.20;;
14088;SDS011;7120;52.890;6.040;2023-07-24T08:26:31;9.47;;;5.97;;
14088;SDS011;7120;52.890;6.040;2023-07-24T08:28:57;10.20;;;5.93;;
14088;SDS011;7120;52.890;6.040;2023-07-24T08:31:22;7.33;;;6.00;;
14088;SDS011;7120;52.890;6.040;2023-07-24T08:33:48;7.63;;;5.67;;
14088;SDS011;7120;52.890;6.040;2023-07-24T08:36:13;9.37;;;5.60;;
14088;SDS011;7120;52.890;6.040;2023-07-24T08:38:39;8.83;;;6.10;;
14088;SDS011;7120;52.890;6.040;2023-07-24T08:41:06;7.40;;;5.37;;
14088;SDS011;7120;52.890;6.040;2023-07-24T08:43:36;7.70;;;5.67;;
14088;SDS011;7120;52.890;6.040;2023-07-24T08:46:02;8.67;;;5.97;;
14088;SDS011;7120;52.890;6.040;2023-07-24T08:48:30;6.40;;;5.47;;
14088;SDS011;7120;52.890;6.040;2023-07-24T08:51:06;8.93;;;5.63;;
14088;SDS011;7120;52.890;6.040;2023-07-24T08:53:36;6.40;;;5.13;;
14088;SDS011;7120;52.890;6.040;2023-07-24T08:56:03;7.83;;;5.20;;
14088;SDS011;7120;52.890;6.040;2023-07-24T08:58:29;8.00;;;5.27;;
14088;SDS011;7120;52.890;6.040;2023-07-24T09:00:58;7.90;;;5.33;;
14088;SDS011;7120;52.890;6.040;2023-07-24T09:03:25;9.43;;;5.43;;
14088;SDS011;7120;52.890;6.040;2023-07-24T09:05:51;8.20;;;5.57;;
14088;SDS011;7120;52.890;6.040;2023-07-24T09:08:17;7.97;;;5.20;;
14088;SDS011;7120;52.890;6.040;2023-07-24T09:10:53;7.40;;;5.47;;
14088;SDS011;7120;52.890;6.040;2023-07-24T09:13:18;5.77;;;5.10;;
14088;SDS011;7120;52.890;6.040;2023-07-24T09:15:44;7.13;;;5.00;;
14088;SDS011;7120;52.890;6.040;2023-07-24T09:18:10;7.50;;;4.88;;
14088;SDS011;7120;52.890;6.040;2023-07-24T09:20:40;8.23;;;5.47;;
14088;SDS011;7120;52.890;6.040;2023-07-24T09:23:06;7.93;;;5.40;;
14088;SDS011;7120;52.890;6.040;2023-07-24T09:25:34;6.50;;;5.40;;
14088;SDS011;7120;52.890;6.040;2023-07-24T09:28:00;5.63;;;4.73;;
14088;SDS011;7120;52.890;6.040;2023-07-24T09:30:26;7.03;;;4.50;;
14088;SDS011;7120;52.890;6.040;2023-07-24T09:32:54;8.47;;;5.00;;
14088;SDS011;7120;52.890;6.040;2023-07-24T09:35:20;6.83;;;4.93;;
14088;SDS011;7120;52.890;6.040;2023-07-24T09:38:00;6.53;;;4.67;;
14088;SDS011;7120;52.890;6.040;2023-07-24T09:40:40;7.97;;;5.10;;
14088;SDS011;7120;52.890;6.040;2023-07-24T09:45:42;6.72;;;4.80;;
14088;SDS011;7120;52.890;6.040;2023-07-24T09:48:09;9.00;;;4.60;;
14088;SDS011;7120;52.890;6.040;2023-07-24T09:50:38;8.07;;;4.93;;
14088;SDS011;7120;52.890;6.040;2023-07-24T09:53:05;6.35;;;4.75;;
14088;SDS011;7120;52.890;6.040;2023-07-24T09:55:38;8.77;;;4.82;;
14088;SDS011;7120;52.890;6.040;2023-07-24T09:58:14;7.32;;;4.35;;
14088;SDS011;7120;52.890;6.040;2023-07-24T10:00:40;6.70;;;5.07;;
14088;SDS011;7120;52.890;6.040;2023-07-24T10:03:07;9.07;;;5.50;;
14088;SDS011;7120;52.890;6.040;2023-07-24T10:05:33;7.68;;;5.20;;
14088;SDS011;7120;52.890;6.040;2023-07-24T10:07:58;5.85;;;5.25;;
14088;SDS011;7120;52.890;6.040;2023-07-24T10:10:24;7.45;;;5.80;;
14088;SDS011;7120;52.890;6.040;2023-07-24T10:12:52;7.18;;;5.85;;
14088;SDS011;7120;52.890;6.040;2023-07-24T10:15:17;6.22;;;5.63;;
14088;SDS011;7120;52.890;6.040;2023-07-24T10:17:43;5.60;;;4.65;;
14088;SDS011;7120;52.890;6.040;2023-07-24T10:20:09;5.82;;;4.85;;
14088;SDS011;7120;52.890;6.040;2023-07-24T10:22:36;6.05;;;4.53;;
14088;SDS011;7120;52.890;6.040;2023-07-24T10:25:06;7.13;;;4.75;;
14088;SDS011;7120;52.890;6.040;2023-07-24T10:27:35;5.18;;;4.40;;
14088;SDS011;7120;52.890;6.040;2023-07-24T10:30:02;5.18;;;4.22;;
14088;SDS011;7120;52.890;6.040;2023-07-24T10:32:29;6.18;;;4.82;;
14088;SDS011;7120;52.890;6.040;2023-07-24T10:35:35;6.72;;;4.63;;
14088;SDS011;7120;52.890;6.040;2023-07-24T10:37:47;6.47;;;4.72;;
14088;SDS011;7120;52.890;6.040;2023-07-24T10:40:24;5.63;;;4.60;;
14088;SDS011;7120;52.890;6.040;2023-07-24T10:45:42;4.55;;;4.15;;
14088;SDS011;7120;52.890;6.040;2023-07-24T10:48:10;4.65;;;4.13;;
14088;SDS011;7120;52.890;6.040;2023-07-24T10:50:40;6.55;;;4.35;;
14088;SDS011;7120;52.890;6.040;2023-07-24T10:53:08;5.78;;;4.65;;
14088;SDS011;7120;52.890;6.040;2023-07-24T10:55:34;5.60;;;4.47;;
14088;SDS011;7120;52.890;6.040;2023-07-24T10:58:00;6.43;;;4.72;;
14088;SDS011;7120;52.890;6.040;2023-07-24T11:00:26;7.20;;;5.38;;
14088;SDS011;7120;52.890;6.040;2023-07-24T11:02:55;5.43;;;4.88;;
14088;SDS011;7120;52.890;6.040;2023-07-24T11:05:24;6.15;;;4.45;;
14088;SDS011;7120;52.890;6.040;2023-07-24T11:07:50;6.55;;;4.95;;
14088;SDS011;7120;52.890;6.040;2023-07-24T11:10:19;6.95;;;4.70;;
14088;SDS011;7120;52.890;6.040;2023-07-24T11:12:45;6.30;;;4.50;;
14088;SDS011;7120;52.890;6.040;2023-07-24T11:15:11;6.10;;;4.70;;
14088;SDS011;7120;52.890;6.040;2023-07-24T11:17:38;5.45;;;4.88;;
14088;SDS011;7120;52.890;6.040;2023-07-24T11:20:08;6.18;;;4.80;;
14088;SDS011;7120;52.890;6.040;2023-07-24T11:22:41;5.55;;;4.38;;
14088;SDS011;7120;52.890;6.040;2023-07-24T11:25:09;5.25;;;4.32;;
14088;SDS011;7120;52.890;6.040;2023-07-24T11:27:40;6.05;;;5.18;;
14088;SDS011;7120;52.890;6.040;2023-07-24T11:30:08;7.20;;;4.72;;
14088;SDS011;7120;52.890;6.040;2023-07-24T11:35:10;4.63;;;4.15;;
14088;SDS011;7120;52.890;6.040;2023-07-24T11:37:35;6.07;;;4.75;;
14088;SDS011;7120;52.890;6.040;2023-07-24T11:40:02;6.95;;;4.80;;
14088;SDS011;7120;52.890;6.040;2023-07-24T11:42:38;5.93;;;5.33;;
14088;SDS011;7120;52.890;6.040;2023-07-24T11:45:06;5.83;;;3.80;;
14088;SDS011;7120;52.890;6.040;2023-07-24T11:47:41;5.13;;;4.43;;
14088;SDS011;7120;52.890;6.040;2023-07-24T11:50:07;5.10;;;4.40;;
14088;SDS011;7120;52.890;6.040;2023-07-24T11:52:39;6.20;;;5.60;;
14088;SDS011;7120;52.890;6.040;2023-07-24T11:55:05;8.77;;;6.00;;
14088;SDS011;7120;52.890;6.040;2023-07-24T11:57:32;7.73;;;6.83;;
14088;SDS011;7120;52.890;6.040;2023-07-24T11:59:57;6.47;;;5.87;;
14088;SDS011;7120;52.890;6.040;2023-07-24T12:02:26;8.57;;;6.43;;
14088;SDS011;7120;52.890;6.040;2023-07-24T12:04:55;6.63;;;5.90;;
14088;SDS011;7120;52.890;6.040;2023-07-24T12:07:23;6.60;;;6.00;;
14088;SDS011;7120;52.890;6.040;2023-07-24T12:09:54;8.33;;;7.33;;
14088;SDS011;7120;52.890;6.040;2023-07-24T12:12:19;8.97;;;7.90;;
14088;SDS011;7120;52.890;6.040;2023-07-24T12:14:45;11.47;;;10.43;;
14088;SDS011;7120;52.890;6.040;2023-07-24T12:17:10;11.57;;;10.47;;
14088;SDS011;7120;52.890;6.040;2023-07-24T12:19:39;9.37;;;8.47;;
14088;SDS011;7120;52.890;6.040;2023-07-24T12:22:04;9.03;;;8.23;;
14088;SDS011;7120;52.890;6.040;2023-07-24T12:24:30;8.53;;;7.77;;
14088;SDS011;7120;52.890;6.040;2023-07-24T12:26:55;8.50;;;7.80;;
14088;SDS011;7120;52.890;6.040;2023-07-24T12:29:20;8.83;;;8.03;;
14088;SDS011;7120;52.890;6.040;2023-07-24T12:31:46;9.37;;;8.37;;
14088;SDS011;7120;52.890;6.040;2023-07-24T12:34:11;9.43;;;8.57;;
14088;SDS011;7120;52.890;6.040;2023-07-24T12:36:37;8.83;;;7.93;;
14088;SDS011;7120;52.890;6.040;2023-07-24T12:39:02;10.83;;;9.10;;
14088;SDS011;7120;52.890;6.040;2023-07-24T12:41:27;9.93;;;8.93;;
14088;SDS011;7120;52.890;6.040;2023-07-24T12:43:53;10.27;;;9.33;;
14088;SDS011;7120;52.890;6.040;2023-07-24T12:46:18;10.20;;;9.20;;
14088;SDS011;7120;52.890;6.040;2023-07-24T12:48:43;9.93;;;9.03;;
14088;SDS011;7120;52.890;6.040;2023-07-24T12:51:09;10.83;;;9.87;;
14088;SDS011;7120;52.890;6.040;2023-07-24T12:53:34;11.03;;;10.03;;
14088;SDS011;7120;52.890;6.040;2023-07-24T12:55:59;10.57;;;9.47;;
14088;SDS011;7120;52.890;6.040;2023-07-24T12:58:25;9.77;;;8.87;;
14088;SDS011;7120;52.890;6.040;2023-07-24T13:00:50;9.00;;;8.20;;
14088;SDS011;7120;52.890;6.040;2023-07-24T13:03:15;8.90;;;8.00;;
14088;SDS011;7120;52.890;6.040;2023-07-24T13:05:41;8.50;;;7.00;;
14088;SDS011;7120;52.890;6.040;2023-07-24T13:08:07;7.10;;;6.50;;
14088;SDS011;7120;52.890;6.040;2023-07-24T13:10:32;7.73;;;7.03;;
14088;SDS011;7120;52.890;6.040;2023-07-24T13:12:57;7.80;;;6.70;;
14088;SDS011;7120;52.890;6.040;2023-07-24T13:15:23;5.40;;;5.00;;
14088;SDS011;7120;52.890;6.040;2023-07-24T13:17:48;4.40;;;4.00;;
14088;SDS011;7120;52.890;6.040;2023-07-24T13:20:13;3.77;;;3.40;;
14088;SDS011;7120;52.890;6.040;2023-07-24T13:22:39;2.77;;;2.57;;
14088;SDS011;7120;52.890;6.040;2023-07-24T13:25:04;3.40;;;2.20;;
14088;SDS011;7120;52.890;6.040;2023-07-24T13:27:30;2.43;;;2.23;;
14088;SDS011;7120;52.890;6.040;2023-07-24T13:29:55;2.80;;;2.00;;
14088;SDS011;7120;52.890;6.040;2023-07-24T13:32:21;2.33;;;2.00;;
14088;SDS011;7120;52.890;6.040;2023-07-24T13:34:46;2.27;;;2.07;;
14088;SDS011;7120;52.890;6.040;2023-07-24T13:37:13;4.13;;;2.03;;
14088;SDS011;7120;52.890;6.040;2023-07-24T13:39:38;2.93;;;1.93;;
14088;SDS011;7120;52.890;6.040;2023-07-24T13:42:03;3.80;;;2.20;;
14088;SDS011;7120;52.890;6.040;2023-07-24T13:44:29;2.50;;;2.30;;
14088;SDS011;7120;52.890;6.040;2023-07-24T13:46:54;2.57;;;2.20;;
14088;SDS011;7120;52.890;6.040;2023-07-24T13:49:21;3.83;;;2.07;;
14088;SDS011;7120;52.890;6.040;2023-07-24T13:51:46;2.67;;;1.93;;
14088;SDS011;7120;52.890;6.040;2023-07-24T13:54:12;3.67;;;2.13;;
14088;SDS011;7120;52.890;6.040;2023-07-24T13:56:37;4.00;;;2.10;;
14088;SDS011;7120;52.890;6.040;2023-07-24T13:59:03;2.23;;;1.73;;
14088;SDS011;7120;52.890;6.040;2023-07-24T14:01:29;2.87;;;1.60;;
14088;SDS011;7120;52.890;6.040;2023-07-24T14:03:54;2.80;;;1.80;;
14088;SDS011;7120;52.890;6.040;2023-07-24T14:06:19;2.03;;;1.60;;
14088;SDS011;7120;52.890;6.040;2023-07-24T14:08:45;4.37;;;1.83;;
14088;SDS011;7120;52.890;6.040;2023-07-24T14:11:10;3.23;;;1.73;;
14088;SDS011;7120;52.890;6.040;2023-07-24T14:13:36;3.53;;;1.97;;
14088;SDS011;7120;52.890;6.040;2023-07-24T14:16:01;3.07;;;2.07;;
14088;SDS011;7120;52.890;6.040;2023-07-24T14:18:26;2.90;;;1.73;;
14088;SDS011;7120;52.890;6.040;2023-07-24T14:20:52;3.30;;;1.90;;
14088;SDS011;7120;52.890;6.040;2023-07-24T14:23:20;2.77;;;1.30;;
14088;SDS011;7120;52.890;6.040;2023-07-24T14:25:45;3.37;;;1.53;;
14088;SDS011;7120;52.890;6.040;2023-07-24T14:28:11;3.00;;;1.60;;
14088;SDS011;7120;52.890;6.040;2023-07-24T14:30:36;3.40;;;1.83;;
14088;SDS011;7120;52.890;6.040;2023-07-24T14:33:01;1.80;;;1.40;;
14088;SDS011;7120;52.890;6.040;2023-07-24T14:35:27;3.07;;;1.70;;
14088;SDS011;7120;52.890;6.040;2023-07-24T14:37:52;3.60;;;1.40;;
14088;SDS011;7120;52.890;6.040;2023-07-24T14:40:17;3.60;;;1.50;;
14088;SDS011;7120;52.890;6.040;2023-07-24T14:42:43;2.70;;;1.47;;
14088;SDS011;7120;52.890;6.040;2023-07-24T14:45:09;1.83;;;1.27;;
14088;SDS011;7120;52.890;6.040;2023-07-24T14:47:34;2.37;;;1.53;;
14088;SDS011;7120;52.890;6.040;2023-07-24T14:50:00;2.70;;;1.67;;
14088;SDS011;7120;52.890;6.040;2023-07-24T14:52:25;3.17;;;1.50;;
14088;SDS011;7120;52.890;6.040;2023-07-24T14:54:50;1.73;;;1.13;;
14088;SDS011;7120;52.890;6.040;2023-07-24T14:57:16;3.93;;;1.83;;
14088;SDS011;7120;52.890;6.040;2023-07-24T14:59:41;2.37;;;1.60;;
14088;SDS011;7120;52.890;6.040;2023-07-24T15:02:06;3.43;;;1.50;;